Time;durP1;ratioP1;P1;durP2;ratioP2;P2;SDS_P1;SDS_P2;PMS_P1;PMS_P2;Temp;Humidity;BMP_temperature;BMP_pressure;BME280_temperature;BME280_humidity;BME280_pressure;Samples;Min_cycle;Max_cycle;Signal;HPM_P1;HPM_P2
2023/02/02 00:01:48;;;;;;;29.48;3.45;;;4.90;99.90;;;;;;4689787;30;20414;-89
2023/02/02 00:04:23;;;;;;;28.73;4.20;;;4.90;99.90;;;;;;4682595;30;20385;-89
2023/02/02 00:06:49;;;;;;;33.13;4.15;;;4.90;99.90;;;;;;4678135;30;20106;-89
2023/02/02 00:09:17;;;;;;;28.48;4.43;;;4.90;99.90;;;;;;4701290;30;20442;-89
2023/02/02 00:11:44;;;;;;;35.40;4.25;;;4.90;99.90;;;;;;4702045;30;20104;-89
2023/02/02 00:14:10;;;;;;;22.92;3.78;;;4.90;99.90;;;;;;4683285;30;20114;-89
2023/02/02 00:16:37;;;;;;;31.10;4.55;;;4.90;99.90;;;;;;4684864;30;20045;-89
2023/02/02 00:19:12;;;;;;;31.45;3.80;;;4.90;99.90;;;;;;4690138;30;20062;-89
2023/02/02 00:21:38;;;;;;;18.95;3.67;;;4.90;99.90;;;;;;4685641;30;20049;-89
2023/02/02 00:24:06;;;;;;;33.80;4.15;;;4.90;99.90;;;;;;4682718;30;20053;-89
2023/02/02 00:26:31;;;;;;;29.13;3.90;;;4.90;99.90;;;;;;4677040;30;20487;-89
2023/02/02 00:28:57;;;;;;;34.65;3.85;;;4.90;99.90;;;;;;4685513;30;20107;-90
2023/02/02 00:31:26;;;;;;;30.75;4.20;;;4.90;99.90;;;;;;4684888;30;20053;-90
2023/02/02 00:33:52;;;;;;;28.90;3.60;;;4.90;99.90;;;;;;4685905;30;20050;-89
2023/02/02 00:36:18;;;;;;;29.55;4.47;;;4.90;99.90;;;;;;4701179;30;20407;-90
2023/02/02 00:38:45;;;;;;;26.40;3.97;;;4.90;99.90;;;;;;4685790;30;20060;-89
2023/02/02 00:41:11;;;;;;;24.55;3.17;;;5.00;99.90;;;;;;4685638;30;20055;-89
2023/02/02 00:43:36;;;;;;;26.30;3.60;;;5.00;99.90;;;;;;4686324;30;20046;-90
2023/02/02 00:46:02;;;;;;;30.45;3.95;;;5.00;99.90;;;;;;4685353;30;20058;-89
2023/02/02 00:48:28;;;;;;;29.27;3.67;;;5.00;99.90;;;;;;4685438;30;20049;-89
2023/02/02 00:50:53;;;;;;;28.48;3.72;;;5.00;99.90;;;;;;4700570;30;20053;-88
2023/02/02 00:53:19;;;;;;;31.08;4.00;;;5.10;99.90;;;;;;4682381;30;20066;-88
2023/02/02 00:55:45;;;;;;;31.00;4.35;;;5.10;99.90;;;;;;4697064;30;20080;-89
2023/02/02 00:58:10;;;;;;;24.60;4.07;;;5.10;99.90;;;;;;4700845;30;20600;-88
2023/02/02 01:00:36;;;;;;;24.13;3.33;;;5.10;99.90;;;;;;4700189;30;20065;-88
2023/02/02 01:03:03;;;;;;;28.05;3.53;;;5.20;99.90;;;;;;4685586;30;20064;-89
2023/02/02 01:05:33;;;;;;;30.75;4.22;;;5.20;99.90;;;;;;4700272;30;20041;-88
2023/02/02 01:07:59;;;;;;;28.40;4.20;;;5.20;99.90;;;;;;4701156;30;20058;-88
2023/02/02 01:10:25;;;;;;;31.10;4.07;;;5.20;99.90;;;;;;4699542;30;20099;-88
2023/02/02 01:12:51;;;;;;;29.33;3.53;;;5.20;99.90;;;;;;4700384;30;20045;-88
2023/02/02 01:15:17;;;;;;;27.77;3.67;;;5.30;99.90;;;;;;4685217;30;20088;-90
2023/02/02 01:17:43;;;;;;;31.23;3.72;;;5.30;99.90;;;;;;4700890;30;20077;-89
2023/02/02 01:20:15;;;;;;;28.65;3.42;;;5.30;99.90;;;;;;4700507;30;20491;-87
2023/02/02 01:22:41;;;;;;;37.47;4.13;;;5.30;99.90;;;;;;4700744;30;20049;-90
2023/02/02 01:25:10;;;;;;;34.53;3.83;;;5.40;99.90;;;;;;4700507;30;20124;-88
2023/02/02 01:27:35;;;;;;;28.63;3.42;;;5.40;99.90;;;;;;4684232;30;20495;-88
2023/02/02 01:30:01;;;;;;;28.33;3.75;;;5.40;99.90;;;;;;4685237;30;20068;-88
2023/02/02 01:32:27;;;;;;;27.45;4.18;;;5.40;99.90;;;;;;4700220;30;20092;-88
2023/02/02 01:34:52;;;;;;;25.65;3.13;;;5.40;99.90;;;;;;4687352;30;20045;-88
2023/02/02 01:37:18;;;;;;;27.13;3.70;;;5.50;99.90;;;;;;4700036;30;20053;-88
2023/02/02 01:39:44;;;;;;;27.60;3.25;;;5.50;99.90;;;;;;4682282;30;20053;-88
2023/02/02 01:42:20;;;;;;;31.58;3.83;;;5.50;99.90;;;;;;4681697;30;20140;-88
2023/02/02 01:44:57;;;;;;;20.20;3.25;;;5.50;99.90;;;;;;4684881;30;20546;-89
2023/02/02 01:47:29;;;;;;;25.48;3.85;;;5.50;99.90;;;;;;4678541;25;20166;-88
2023/02/02 01:49:55;;;;;;;30.75;3.17;;;5.60;99.90;;;;;;4665075;30;20116;-88
2023/02/02 01:52:28;;;;;;;26.95;3.45;;;5.60;99.90;;;;;;4649599;30;20050;-89
2023/02/02 01:54:58;;;;;;;27.48;3.60;;;5.60;99.90;;;;;;4646577;30;20113;-88
2023/02/02 01:57:32;;;;;;;18.77;2.97;;;5.60;99.90;;;;;;4650667;30;20058;-89
2023/02/02 02:00:01;;;;;;;25.52;3.90;;;5.60;99.90;;;;;;4650786;30;20116;-89
2023/02/02 02:02:29;;;;;;;28.48;3.92;;;5.60;99.90;;;;;;4649549;30;20047;-89
2023/02/02 02:04:55;;;;;;;32.22;3.90;;;5.70;99.90;;;;;;4665883;30;20093;-89
2023/02/02 02:07:22;;;;;;;29.77;3.90;;;5.70;99.90;;;;;;4665554;30;20523;-88
2023/02/02 02:09:48;;;;;;;26.63;3.13;;;5.70;99.90;;;;;;4659684;30;20106;-89
2023/02/02 02:12:15;;;;;;;26.42;3.47;;;5.70;99.90;;;;;;4642744;30;20050;-89
2023/02/02 02:17:53;;;;;;;28.92;3.90;;;5.80;99.90;;;;;;4649497;30;20141;-88
2023/02/02 02:26:53;;;;;;;29.63;3.58;;;5.80;99.90;;;;;;4633399;30;20059;-88
2023/02/02 02:29:58;;;;;;;20.92;3.25;;;5.80;99.90;;;;;;4642362;30;20062;-88
2023/02/02 02:32:49;;;;;;;20.90;3.50;;;5.80;99.90;;;;;;4664990;30;20515;-89
2023/02/02 02:35:21;;;;;;;24.65;3.40;;;5.90;99.90;;;;;;4648357;30;20065;-88
2023/02/02 02:38:07;;;;;;;26.83;3.72;;;5.90;99.90;;;;;;4649569;30;20181;-88
2023/02/02 02:40:41;;;;;;;20.42;3.30;;;5.90;99.90;;;;;;4633516;30;20141;-88
2023/02/02 02:43:29;;;;;;;17.77;2.97;;;5.90;99.90;;;;;;4656387;30;20046;-89
2023/02/02 02:45:56;;;;;;;30.27;3.63;;;6.00;99.90;;;;;;4655406;30;20055;-88
2023/02/02 02:48:21;;;;;;;29.67;3.25;;;6.00;99.90;;;;;;4630254;30;20424;-89
2023/02/02 02:50:47;;;;;;;23.00;3.20;;;6.00;99.90;;;;;;4645435;30;20058;-89
2023/02/02 02:53:21;;;;;;;21.65;2.90;;;6.00;99.90;;;;;;4638120;30;20417;-90
2023/02/02 02:55:57;;;;;;;25.92;3.55;;;6.10;99.90;;;;;;4646268;30;20043;-89
2023/02/02 02:58:47;;;;;;;26.40;3.38;;;6.10;99.90;;;;;;4647192;30;20051;-89
2023/02/02 03:01:50;;;;;;;25.35;3.15;;;6.10;99.90;;;;;;4648380;30;20067;-89
2023/02/02 03:04:24;;;;;;;23.88;3.08;;;6.10;99.90;;;;;;4631124;30;20073;-89
2023/02/02 03:07:01;;;;;;;28.08;3.42;;;6.10;99.90;;;;;;4646427;30;20109;-89
2023/02/02 03:09:33;;;;;;;15.68;2.42;;;6.20;99.90;;;;;;4632081;30;20141;-89
2023/02/02 03:11:59;;;;;;;18.23;2.60;;;6.20;99.90;;;;;;4631622;30;20059;-90
2023/02/02 03:14:25;;;;;;;16.05;2.72;;;6.20;99.90;;;;;;4635135;30;20047;-89
2023/02/02 03:16:51;;;;;;;18.80;2.83;;;6.20;99.90;;;;;;4636584;30;20055;-89
2023/02/02 03:19:18;;;;;;;19.40;2.33;;;6.20;99.90;;;;;;4633056;30;20449;-90
2023/02/02 03:21:43;;;;;;;25.90;2.63;;;6.20;99.90;;;;;;4643453;30;20043;-89
2023/02/02 03:24:09;;;;;;;20.70;2.92;;;6.20;99.90;;;;;;4646345;30;20055;-90
2023/02/02 03:26:35;;;;;;;20.10;2.85;;;6.20;99.90;;;;;;4640540;30;20040;-90
2023/02/02 03:29:01;;;;;;;30.50;3.63;;;6.20;99.90;;;;;;4632565;30;20059;-90
2023/02/02 03:31:28;;;;;;;17.77;2.40;;;6.20;99.90;;;;;;4631121;30;20497;-90
2023/02/02 03:33:54;;;;;;;17.80;2.38;;;6.20;99.90;;;;;;4636863;30;20047;-90
2023/02/02 03:36:20;;;;;;;16.00;2.25;;;6.20;99.90;;;;;;4638973;30;20679;-90
2023/02/02 03:38:51;;;;;;;17.02;2.10;;;6.20;99.90;;;;;;4644799;30;20082;-91
2023/02/02 03:41:17;;;;;;;16.00;2.25;;;6.20;99.90;;;;;;4640933;30;20047;-91
2023/02/02 03:43:43;;;;;;;15.23;2.13;;;6.20;99.90;;;;;;4651117;30;20050;-90
2023/02/02 03:46:08;;;;;;;10.95;2.28;;;6.20;99.90;;;;;;4635286;30;20569;-88
2023/02/02 03:48:36;;;;;;;8.13;1.17;;;6.20;99.90;;;;;;4634737;30;20061;-90
2023/02/02 03:51:10;;;;;;;8.95;1.73;;;6.20;99.90;;;;;;4645051;30;20058;-90
2023/02/02 03:53:36;;;;;;;7.15;1.30;;;6.10;99.90;;;;;;4647011;30;20461;-90
2023/02/02 03:56:02;;;;;;;12.07;1.35;;;6.10;99.90;;;;;;4630258;30;20057;-90
2023/02/02 03:58:29;;;;;;;7.75;1.70;;;6.10;99.90;;;;;;4639473;30;20505;-89
2023/02/02 04:01:06;;;;;;;13.35;1.80;;;6.00;99.90;;;;;;4619245;31;20404;-89
2023/02/02 04:03:32;;;;;;;12.65;1.67;;;6.00;99.90;;;;;;4636743;30;20138;-88
2023/02/02 04:05:58;;;;;;;9.35;1.35;;;6.00;99.90;;;;;;4620082;31;20051;-89
2023/02/02 04:08:24;;;;;;;7.32;1.48;;;6.00;99.90;;;;;;4637264;30;20043;-89
2023/02/02 04:10:50;;;;;;;16.25;1.70;;;6.00;99.90;;;;;;4649830;30;20050;-89
2023/02/02 04:13:15;;;;;;;9.05;1.30;;;6.00;99.90;;;;;;4634499;30;20058;-88
2023/02/02 04:15:41;;;;;;;9.82;1.45;;;6.00;99.90;;;;;;4631997;30;20146;-89
2023/02/02 04:18:07;;;;;;;8.55;1.23;;;5.90;99.90;;;;;;4638309;30;20449;-89
2023/02/02 04:20:32;;;;;;;8.20;1.20;;;5.90;99.90;;;;;;4645784;30;20078;-89
2023/02/02 04:23:01;;;;;;;11.10;1.20;;;5.90;99.90;;;;;;4633754;30;20064;-89
2023/02/02 04:25:27;;;;;;;10.02;1.30;;;5.90;99.90;;;;;;4633434;30;20095;-88
2023/02/02 04:27:52;;;;;;;8.00;1.15;;;5.90;99.90;;;;;;4635461;30;20417;-89
2023/02/02 04:30:18;;;;;;;3.08;0.77;;;5.90;99.90;;;;;;4648098;30;20043;-89
2023/02/02 04:32:45;;;;;;;9.02;1.60;;;5.90;99.90;;;;;;4649238;30;20051;-89
2023/02/02 04:35:10;;;;;;;7.10;1.30;;;5.90;99.90;;;;;;4649302;30;20162;-89
2023/02/02 04:37:36;;;;;;;9.80;1.20;;;5.90;99.90;;;;;;4649408;30;20544;-88
2023/02/02 04:40:02;;;;;;;7.72;1.13;;;5.90;99.90;;;;;;4650148;30;20042;-89
2023/02/02 04:42:28;;;;;;;6.85;1.33;;;5.90;99.90;;;;;;4648361;30;20493;-89
2023/02/02 04:44:54;;;;;;;8.93;1.35;;;5.90;99.90;;;;;;4647671;30;20070;-89
2023/02/02 04:47:20;;;;;;;11.13;1.35;;;5.90;99.90;;;;;;4646856;30;20249;-89
2023/02/02 04:49:45;;;;;;;7.93;1.10;;;5.80;99.90;;;;;;4663068;30;20054;-88
2023/02/02 04:52:11;;;;;;;8.93;1.20;;;5.90;99.90;;;;;;4647586;30;20134;-89
2023/02/02 04:54:37;;;;;;;7.10;1.05;;;5.90;99.90;;;;;;4648932;30;20047;-89
2023/02/02 04:57:02;;;;;;;8.73;1.20;;;5.80;99.90;;;;;;4648817;30;20059;-89
2023/02/02 04:59:28;;;;;;;11.98;1.63;;;5.80;99.90;;;;;;4655111;30;20050;-88
2023/02/02 05:01:58;;;;;;;10.50;1.60;;;5.80;99.90;;;;;;4636895;30;20051;-87
2023/02/02 05:04:24;;;;;;;9.65;1.30;;;5.80;99.90;;;;;;4624577;30;20500;-88
2023/02/02 05:06:49;;;;;;;10.38;1.30;;;5.80;99.90;;;;;;4648134;30;20066;-89
2023/02/02 05:09:15;;;;;;;6.55;1.20;;;5.80;99.90;;;;;;4650111;30;20074;-89
2023/02/02 05:11:43;;;;;;;7.45;1.30;;;5.80;99.90;;;;;;4641865;30;20497;-90
2023/02/02 05:14:09;;;;;;;8.05;1.45;;;5.80;99.90;;;;;;4647294;30;20126;-90
2023/02/02 05:16:35;;;;;;;9.13;1.20;;;5.80;99.90;;;;;;4649063;30;20055;-86
2023/02/02 05:19:01;;;;;;;11.30;1.20;;;5.80;99.90;;;;;;4633775;30;20070;-86
2023/02/02 05:21:27;;;;;;;11.18;1.65;;;5.80;99.90;;;;;;4632931;30;20047;-86
2023/02/02 05:23:52;;;;;;;10.55;1.48;;;5.80;99.90;;;;;;4636146;30;20146;-86
2023/02/02 05:26:21;;;;;;;6.45;1.17;;;5.80;99.90;;;;;;4630978;30;20054;-87
2023/02/02 05:28:47;;;;;;;11.20;1.35;;;5.80;99.90;;;;;;4649362;30;20400;-88
2023/02/02 05:31:13;;;;;;;7.18;1.00;;;5.80;99.90;;;;;;4648627;30;20055;-86
2023/02/02 05:33:39;;;;;;;8.95;1.25;;;5.80;99.90;;;;;;4647542;30;20054;-85
2023/02/02 05:36:06;;;;;;;7.75;1.10;;;5.80;99.90;;;;;;4648132;30;20061;-86
2023/02/02 05:38:32;;;;;;;11.55;1.30;;;5.80;99.90;;;;;;4649002;30;20054;-86
2023/02/02 05:40:57;;;;;;;7.95;1.13;;;5.80;99.90;;;;;;4647959;30;20050;-87
2023/02/02 05:43:28;;;;;;;6.20;1.20;;;5.80;99.90;;;;;;4648841;30;20489;-86
2023/02/02 05:45:54;;;;;;;8.63;1.30;;;5.80;99.90;;;;;;4649359;30;20069;-86
2023/02/02 05:48:20;;;;;;;5.68;0.88;;;5.80;99.90;;;;;;4646993;30;20063;-86
2023/02/02 05:50:55;;;;;;;6.30;1.00;;;5.80;99.90;;;;;;4648122;30;20054;-86
2023/02/02 05:53:26;;;;;;;5.40;1.00;;;5.80;99.90;;;;;;4648973;30;20090;-86
2023/02/02 05:55:52;;;;;;;9.02;1.23;;;5.80;99.90;;;;;;4634218;30;20402;-87
2023/02/02 05:58:30;;;;;;;5.70;1.08;;;5.80;99.90;;;;;;4631040;30;20143;-86
2023/02/02 06:00:55;;;;;;;8.45;1.23;;;5.80;99.90;;;;;;4630522;30;20497;-87
2023/02/02 06:03:27;;;;;;;6.10;0.82;;;5.80;99.90;;;;;;4616601;31;20061;-87
2023/02/02 06:05:53;;;;;;;4.10;0.93;;;5.70;99.90;;;;;;4632120;30;20179;-87
2023/02/02 06:08:27;;;;;;;8.30;0.90;;;5.70;99.90;;;;;;4630845;30;20498;-87
2023/02/02 06:10:53;;;;;;;6.22;1.00;;;5.80;99.90;;;;;;4644226;30;20058;-86
2023/02/02 06:13:19;;;;;;;6.10;0.93;;;5.70;99.90;;;;;;4647694;30;20067;-87
2023/02/02 06:15:47;;;;;;;9.43;1.30;;;5.80;99.90;;;;;;4648348;30;20089;-87
2023/02/02 06:18:19;;;;;;;12.05;1.52;;;5.80;99.90;;;;;;4647307;30;20129;-87
2023/02/02 06:20:45;;;;;;;6.35;1.02;;;5.70;99.90;;;;;;4647589;30;20046;-87
2023/02/02 06:23:11;;;;;;;7.28;1.00;;;5.80;99.90;;;;;;4646614;30;20095;-87
2023/02/02 06:25:37;;;;;;;9.77;1.67;;;5.70;99.90;;;;;;4646261;30;20043;-86
2023/02/02 06:28:02;;;;;;;8.90;1.40;;;5.80;99.90;;;;;;4647419;30;20130;-86
2023/02/02 06:30:28;;;;;;;8.38;1.30;;;5.70;99.90;;;;;;4646378;30;20059;-87
2023/02/02 06:32:53;;;;;;;7.88;1.38;;;5.70;99.90;;;;;;4646311;30;20535;-88
2023/02/02 06:35:19;;;;;;;4.68;1.00;;;5.80;99.90;;;;;;4643094;30;20050;-89
2023/02/02 06:37:45;;;;;;;6.78;1.23;;;5.80;99.90;;;;;;4648090;30;20078;-88
2023/02/02 06:40:12;;;;;;;6.45;1.10;;;5.80;99.90;;;;;;4648457;30;20049;-88
2023/02/02 06:42:41;;;;;;;9.73;1.35;;;5.70;99.90;;;;;;4632345;30;20059;-92
2023/02/02 06:45:07;;;;;;;8.38;1.30;;;5.80;99.90;;;;;;4637608;30;20531;-91
2023/02/02 06:47:32;;;;;;;10.32;1.40;;;5.80;99.90;;;;;;4650253;30;20058;-90
2023/02/02 06:50:01;;;;;;;9.88;1.20;;;5.80;99.90;;;;;;4648636;30;20054;-92
2023/02/02 06:52:30;;;;;;;10.43;1.52;;;5.80;99.90;;;;;;4662944;30;20051;-88
2023/02/02 06:54:55;;;;;;;9.07;1.55;;;5.80;99.90;;;;;;4661648;30;20412;-89
2023/02/02 06:57:21;;;;;;;6.30;1.00;;;5.80;99.90;;;;;;4660264;30;20054;-87
2023/02/02 06:59:47;;;;;;;4.00;0.80;;;5.80;99.90;;;;;;4643952;30;20489;-87
2023/02/02 07:02:12;;;;;;;8.63;1.38;;;5.80;99.90;;;;;;4665853;30;20129;-88
2023/02/02 07:04:38;;;;;;;8.52;1.38;;;5.70;99.90;;;;;;4642600;30;20039;-86
2023/02/02 07:07:04;;;;;;;7.55;1.33;;;5.80;99.90;;;;;;4645361;30;20101;-87
2023/02/02 07:12:34;;;;;;;7.35;1.30;;;5.80;99.90;;;;;;4679843;24;20112;-86
2023/02/02 07:14:59;;;;;;;8.75;1.60;;;5.80;99.90;;;;;;4659181;30;20054;-88
2023/02/02 07:17:32;;;;;;;10.95;1.55;;;5.80;99.90;;;;;;4652991;30;20064;-87
2023/02/02 07:19:57;;;;;;;10.18;1.85;;;5.80;99.90;;;;;;4673292;30;20137;-88
2023/02/02 07:22:23;;;;;;;7.65;1.30;;;5.80;99.90;;;;;;4680202;30;20204;-88
2023/02/02 07:24:49;;;;;;;11.93;2.22;;;5.80;99.90;;;;;;4679009;30;20046;-88
2023/02/02 07:27:14;;;;;;;11.30;1.77;;;5.80;99.90;;;;;;4660292;30;20393;-86
2023/02/02 07:29:40;;;;;;;8.93;1.45;;;5.80;99.90;;;;;;4653785;30;20050;-87
2023/02/02 07:32:06;;;;;;;7.97;1.40;;;5.80;99.90;;;;;;4661967;30;20081;-87
2023/02/02 07:34:41;;;;;;;10.52;1.60;;;5.80;99.90;;;;;;4672110;30;20042;-87
2023/02/02 07:37:07;;;;;;;6.45;1.33;;;5.80;99.90;;;;;;4661062;30;20045;-89
2023/02/02 07:39:33;;;;;;;9.52;1.67;;;5.80;99.90;;;;;;4673339;30;20051;-88
2023/02/02 07:41:59;;;;;;;6.65;1.65;;;5.80;99.90;;;;;;4672326;30;20492;-88
2023/02/02 07:44:25;;;;;;;11.77;2.10;;;5.80;99.90;;;;;;4668221;30;20050;-92
2023/02/02 07:46:50;;;;;;;7.55;1.55;;;5.80;99.90;;;;;;4651837;30;20519;-92
2023/02/02 07:49:17;;;;;;;9.23;2.65;;;5.80;99.90;;;;;;4652455;30;20047;-92
2023/02/02 07:51:48;;;;;;;6.57;2.20;;;5.80;99.90;;;;;;4668324;30;20053;-89
2023/02/02 07:54:14;;;;;;;6.60;1.80;;;5.80;99.90;;;;;;4651573;30;20058;-90
2023/02/02 07:56:40;;;;;;;5.93;1.30;;;5.80;99.90;;;;;;4670029;30;20111;-90
2023/02/02 07:59:12;;;;;;;6.25;1.85;;;5.80;99.90;;;;;;4653171;30;20053;-91
2023/02/02 08:01:44;;;;;;;4.88;1.70;;;5.80;99.90;;;;;;4652793;30;20066;-91
2023/02/02 08:04:10;;;;;;;6.78;2.17;;;5.80;99.90;;;;;;4668888;30;20085;-90
2023/02/02 08:06:38;;;;;;;5.68;1.95;;;5.80;99.90;;;;;;4657178;30;20089;-90
2023/02/02 08:09:15;;;;;;;4.95;1.60;;;5.80;99.90;;;;;;4677470;24;20050;-90
2023/02/02 08:11:52;;;;;;;6.00;2.85;;;5.80;99.90;;;;;;4683773;30;20120;-88
2023/02/02 08:14:28;;;;;;;7.63;2.75;;;5.90;99.90;;;;;;4690742;30;20053;-89
2023/02/02 08:17:03;;;;;;;10.52;3.20;;;5.90;99.90;;;;;;4685224;30;20139;-89
2023/02/02 08:22:07;;;;;;;8.60;2.55;;;5.90;99.90;;;;;;4726066;25;20630;-89
2023/02/02 08:24:42;;;;;;;5.18;1.67;;;5.90;99.90;;;;;;4666458;30;20058;-88
2023/02/02 08:27:20;;;;;;;6.82;2.35;;;5.90;99.90;;;;;;4673924;30;20075;-87
2023/02/02 08:29:48;;;;;;;5.85;1.92;;;5.90;99.90;;;;;;4674684;30;20045;-90
2023/02/02 08:32:14;;;;;;;10.27;2.72;;;5.90;99.90;;;;;;4677392;30;21690;-90
2023/02/02 08:34:43;;;;;;;6.90;2.17;;;5.90;99.90;;;;;;4683013;30;20069;-91
2023/02/02 08:37:21;;;;;;;6.75;2.88;;;5.90;99.90;;;;;;4668107;30;20128;-91
2023/02/02 08:39:59;;;;;;;8.27;2.53;;;5.90;99.90;;;;;;4693165;30;20840;-91
2023/02/02 08:42:24;;;;;;;9.60;2.80;;;5.90;99.90;;;;;;4680684;30;20404;-91
2023/02/02 08:44:53;;;;;;;8.00;2.50;;;6.00;99.90;;;;;;4661031;30;20096;-92
2023/02/02 08:47:29;;;;;;;7.28;2.95;;;5.90;99.90;;;;;;4685646;30;20573;-91
2023/02/02 08:49:57;;;;;;;7.13;2.70;;;6.00;99.90;;;;;;4668418;30;20104;-92
2023/02/02 08:52:23;;;;;;;6.43;2.25;;;6.00;99.90;;;;;;4692526;25;20111;-92
2023/02/02 08:54:54;;;;;;;7.25;2.60;;;6.00;99.90;;;;;;4702849;30;20045;-94
2023/02/02 08:57:33;;;;;;;6.07;2.40;;;6.00;99.90;;;;;;4700225;30;20050;-94
2023/02/02 09:00:05;;;;;;;7.20;2.90;;;6.00;99.90;;;;;;4687018;30;20050;-94
2023/02/02 09:02:34;;;;;;;5.95;2.40;;;6.00;99.90;;;;;;4697240;30;20061;-93
2023/02/02 09:05:06;;;;;;;12.88;2.83;;;6.10;99.90;;;;;;4715284;30;20111;-88
2023/02/02 09:07:44;;;;;;;5.15;2.58;;;6.10;99.90;;;;;;4688816;30;20077;-91
2023/02/02 09:10:13;;;;;;;6.72;2.40;;;6.10;99.90;;;;;;4685374;30;20050;-88
2023/02/02 09:12:38;;;;;;;6.10;2.88;;;6.10;99.90;;;;;;4680911;30;20057;-88
2023/02/02 09:15:16;;;;;;;6.93;2.58;;;6.10;99.90;;;;;;4694838;30;20053;-88
2023/02/02 09:17:54;;;;;;;5.72;2.70;;;6.20;99.90;;;;;;4694963;30;20071;-88
2023/02/02 09:20:25;;;;;;;6.53;3.20;;;6.20;99.90;;;;;;4700800;30;20107;-88
2023/02/02 09:23:08;;;;;;;9.10;3.50;;;6.20;99.90;;;;;;4713297;30;20076;-89
2023/02/02 09:25:34;;;;;;;5.57;2.87;;;6.20;99.90;;;;;;4686580;30;20049;-89
2023/02/02 09:28:09;;;;;;;9.27;3.22;;;6.20;99.90;;;;;;4692295;30;20415;-89
2023/02/02 09:30:34;;;;;;;7.40;3.15;;;6.20;99.90;;;;;;4697796;30;20064;-89
2023/02/02 09:33:15;;;;;;;5.72;3.20;;;6.30;99.90;;;;;;4699870;30;20057;-89
2023/02/02 09:35:49;;;;;;;7.00;2.92;;;6.30;99.90;;;;;;4686032;30;20055;-92
2023/02/02 09:38:15;;;;;;;5.80;2.80;;;6.30;99.90;;;;;;4701428;30;20053;-93
2023/02/02 09:40:41;;;;;;;7.25;3.00;;;6.30;99.90;;;;;;4700911;30;20137;-88
2023/02/02 09:43:24;;;;;;;9.00;3.00;;;6.30;99.90;;;;;;4713688;30;20124;-87
2023/02/02 09:46:16;;;;;;;5.07;2.90;;;6.30;99.90;;;;;;4689428;30;20124;-87
2023/02/02 09:49:00;;;;;;;8.35;3.13;;;6.40;99.90;;;;;;4684730;30;20103;-88
2023/02/02 09:51:34;;;;;;;5.03;2.38;;;6.40;99.90;;;;;;4690796;30;20497;-89
2023/02/02 09:54:33;;;;;;;6.43;2.40;;;6.40;99.90;;;;;;4706492;30;20637;-88
2023/02/02 09:57:00;;;;;;;6.75;2.70;;;6.40;99.90;;;;;;4694675;30;20064;-88
2023/02/02 09:59:31;;;;;;;7.60;2.65;;;6.40;99.90;;;;;;4695197;30;20134;-88
2023/02/02 10:02:05;;;;;;;5.15;2.80;;;6.50;99.90;;;;;;4708295;30;20464;-88
2023/02/02 10:04:35;;;;;;;6.18;3.10;;;6.50;99.90;;;;;;4702725;30;20057;-88
2023/02/02 10:07:17;;;;;;;8.27;2.83;;;6.50;99.90;;;;;;4697485;30;20053;-88
2023/02/02 10:10:09;;;;;;;6.22;2.70;;;6.50;99.90;;;;;;4689725;30;20111;-89
2023/02/02 10:12:46;;;;;;;9.18;2.90;;;6.50;99.90;;;;;;4689453;30;20104;-88
2023/02/02 10:15:58;;;;;;;6.20;2.50;;;6.50;99.90;;;;;;4692183;30;20112;-89
2023/02/02 10:18:38;;;;;;;6.93;3.20;;;6.60;99.90;;;;;;4699008;30;20126;-88
2023/02/02 10:21:40;;;;;;;6.38;3.10;;;6.60;99.90;;;;;;4699517;30;20061;-88
2023/02/02 10:24:29;;;;;;;6.45;2.70;;;6.60;99.90;;;;;;4676924;30;20057;-88
2023/02/02 10:26:56;;;;;;;6.28;3.08;;;6.60;99.90;;;;;;4713716;30;20061;-88
2023/02/02 10:29:22;;;;;;;7.30;3.20;;;6.70;99.90;;;;;;4687268;30;20462;-89
2023/02/02 10:32:21;;;;;;;7.05;3.50;;;6.70;99.90;;;;;;4708758;30;20081;-89
2023/02/02 10:34:55;;;;;;;5.55;3.00;;;6.70;99.90;;;;;;4690629;30;20038;-88
2023/02/02 10:37:55;;;;;;;7.03;3.00;;;6.70;99.90;;;;;;4694992;30;20049;-89
2023/02/02 10:40:39;;;;;;;6.57;2.40;;;6.70;99.90;;;;;;4682342;30;20056;-89
2023/02/02 10:43:47;;;;;;;5.50;2.55;;;6.80;99.90;;;;;;4687777;30;20503;-91
2023/02/02 10:46:32;;;;;;;6.38;2.50;;;6.70;99.90;;;;;;4705002;30;20041;-92
2023/02/02 10:49:30;;;;;;;8.27;2.50;;;6.80;99.90;;;;;;4694000;30;20053;-95
2023/02/02 10:52:16;;;;;;;5.63;2.60;;;6.80;99.90;;;;;;4688558;30;20054;-93
2023/02/02 10:54:48;;;;;;;6.80;3.17;;;6.80;99.90;;;;;;4733653;30;20455;-95
2023/02/02 10:57:25;;;;;;;8.25;3.10;;;6.80;99.90;;;;;;4695198;30;20089;-95
2023/02/02 11:00:04;;;;;;;6.70;2.30;;;6.80;99.90;;;;;;4694591;30;20050;-94
2023/02/02 11:02:30;;;;;;;7.63;2.22;;;6.80;99.90;;;;;;4697844;30;20199;-96
2023/02/02 11:07:47;;;;;;;8.98;3.70;;;6.90;99.90;;;;;;4717938;30;20046;-94
2023/02/02 11:10:13;;;;;;;5.85;2.20;;;6.90;99.90;;;;;;4703649;30;20057;-95
2023/02/02 11:13:02;;;;;;;4.22;1.80;;;6.90;99.90;;;;;;4702623;25;20090;-95
2023/02/02 11:15:37;;;;;;;5.55;2.00;;;6.90;99.90;;;;;;4671058;30;20085;-94
2023/02/02 11:18:55;;;;;;;4.93;2.20;;;6.90;99.90;;;;;;4678478;30;20054;-94
2023/02/02 11:21:39;;;;;;;4.93;1.85;;;6.90;99.90;;;;;;4657108;30;20063;-95
2023/02/02 11:24:58;;;;;;;5.97;2.08;;;7.00;99.90;;;;;;4684083;30;20054;-95
2023/02/02 11:27:50;;;;;;;5.32;1.70;;;6.90;99.90;;;;;;4573726;31;20791;-95
2023/02/02 11:30:37;;;;;;;8.85;2.47;;;7.00;99.90;;;;;;4573475;31;20072;-96
2023/02/02 11:37:34;;;;;;;7.95;1.80;;;7.00;99.90;;;;;;4574873;31;20061;-90
2023/02/02 11:40:22;;;;;;;6.00;1.90;;;7.00;99.90;;;;;;4584277;31;20613;-91
2023/02/02 11:42:51;;;;;;;6.68;1.95;;;6.90;99.90;;;;;;4609035;31;20056;-91
2023/02/02 11:45:39;;;;;;;7.03;1.42;;;7.00;99.90;;;;;;4603284;31;20055;-91
2023/02/02 11:48:48;;;;;;;5.53;1.52;;;7.00;99.90;;;;;;4621624;31;20059;-91
2023/02/02 11:51:22;;;;;;;12.13;1.60;;;7.00;99.90;;;;;;4600495;31;20058;-91
2023/02/02 11:54:37;;;;;;;6.43;1.77;;;7.00;99.90;;;;;;4654655;25;20112;-90
2023/02/02 11:57:33;;;;;;;9.00;1.80;;;7.00;99.90;;;;;;4682873;30;20104;-93
2023/02/02 12:00:05;;;;;;;7.07;1.30;;;6.90;99.90;;;;;;4666173;30;20042;-90
2023/02/02 12:02:32;;;;;;;5.95;1.38;;;7.00;99.90;;;;;;4667905;30;20060;-91
2023/02/02 12:05:34;;;;;;;8.05;1.48;;;7.00;99.90;;;;;;4679125;30;20054;-94
2023/02/02 12:08:00;;;;;;;6.20;1.42;;;7.00;99.90;;;;;;4671177;30;20054;-92
2023/02/02 12:10:48;;;;;;;5.55;1.55;;;7.00;99.90;;;;;;4684742;30;20046;-92
2023/02/02 12:13:53;;;;;;;;;;;;;;;;;;;;;
2023/02/02 12:17:08;;;;;;;5.38;1.30;;;7.00;99.90;;;;;;4666053;30;20384;-91
2023/02/02 12:20:07;;;;;;;6.20;1.40;;;7.00;99.90;;;;;;4625528;31;20059;-92
2023/02/02 12:23:20;;;;;;;5.43;1.13;;;7.00;99.90;;;;;;4631295;31;20115;-92
2023/02/02 12:26:18;;;;;;;4.13;1.20;;;7.00;99.90;;;;;;4629093;31;20133;-92
2023/02/02 12:28:57;;;;;;;5.63;1.00;;;7.00;99.90;;;;;;4625043;31;20386;-93
2023/02/02 12:31:34;;;;;;;5.22;1.27;;;7.00;99.90;;;;;;4664170;30;20066;-91
2023/02/02 12:34:30;;;;;;;4.35;1.52;;;7.00;99.90;;;;;;4679419;30;20054;-88
2023/02/02 12:37:26;;;;;;;9.63;3.58;;;7.00;99.90;;;;;;4668230;30;20049;-89
2023/02/02 12:40:16;;;;;;;3.38;1.13;;;7.00;99.90;;;;;;4675980;30;20061;-89
2023/02/02 12:43:05;;;;;;;4.72;1.30;;;7.00;99.90;;;;;;4685806;30;20084;-91
2023/02/02 12:45:51;;;;;;;5.57;1.13;;;7.00;99.90;;;;;;4676352;30;20092;-90
2023/02/02 12:48:54;;;;;;;4.35;1.30;;;7.00;99.90;;;;;;4683978;30;20087;-91
2023/02/02 12:51:36;;;;;;;3.45;1.30;;;7.00;99.90;;;;;;4688510;30;20068;-92
2023/02/02 12:54:10;;;;;;;4.13;1.05;;;7.00;99.90;;;;;;4673151;30;20068;-92
2023/02/02 12:57:12;;;;;;;5.00;1.10;;;7.00;99.90;;;;;;4693744;30;20116;-91
2023/02/02 12:59:43;;;;;;;5.28;1.40;;;7.00;99.90;;;;;;4700668;30;20045;-91
2023/02/02 13:02:34;;;;;;;5.88;1.25;;;7.00;99.90;;;;;;4677593;30;20053;-93
2023/02/02 13:05:25;;;;;;;5.15;1.33;;;7.00;99.90;;;;;;4694709;30;20137;-92
2023/02/02 13:07:59;;;;;;;3.25;1.00;;;7.00;99.90;;;;;;4665574;30;20096;-91
2023/02/02 13:10:43;;;;;;;2.90;1.20;;;7.00;99.90;;;;;;4669120;30;20140;-91
2023/02/02 13:13:11;;;;;;;4.38;1.20;;;7.00;99.90;;;;;;4665195;30;20057;-91
2023/02/02 13:15:45;;;;;;;2.60;0.90;;;7.00;99.90;;;;;;4656938;30;20046;-89
2023/02/02 13:18:24;;;;;;;4.40;1.10;;;7.00;99.90;;;;;;4663723;30;20065;-88
2023/02/02 13:21:02;;;;;;;4.10;1.00;;;7.00;99.90;;;;;;4681264;30;20495;-91
2023/02/02 13:23:35;;;;;;;5.43;1.02;;;7.00;99.90;;;;;;4658580;30;20062;-90
2023/02/02 13:26:26;;;;;;;5.80;1.30;;;7.00;99.90;;;;;;4653317;30;20451;-90
2023/02/02 13:29:21;;;;;;;5.80;1.08;;;7.00;99.90;;;;;;4718328;25;20058;-92
2023/02/02 13:32:10;;;;;;;5.03;1.15;;;7.00;99.90;;;;;;4668313;30;20089;-91
2023/02/02 13:34:54;;;;;;;5.85;1.40;;;7.10;99.90;;;;;;4668894;30;20061;-91
2023/02/02 13:38:27;;;;;;;8.70;1.10;;;7.10;99.90;;;;;;4683714;30;20058;-91
2023/02/02 13:41:03;;;;;;;5.93;1.20;;;7.00;99.90;;;;;;4667822;30;20054;-89
2023/02/02 13:44:19;;;;;;;6.22;0.98;;;7.00;99.90;;;;;;4683540;30;20309;-89
2023/02/02 13:47:10;;;;;;;2.83;1.05;;;7.00;99.90;;;;;;4683707;30;20464;-93
2023/02/02 13:50:28;;;;;;;6.72;1.23;;;7.00;99.90;;;;;;4667640;30;20104;-92
2023/02/02 13:54:11;;;;;;;6.63;1.27;;;7.10;99.90;;;;;;4681492;30;20081;-90